createdAt,value
2018-11-02T00:01:00.196Z,23.80
2018-11-02T00:03:28.597Z,22.43
2018-11-02T00:05:57.013Z,23.80
2018-11-02T00:08:25.424Z,25.93
2018-11-02T00:10:53.840Z,25.70
2018-11-02T00:13:22.240Z,27.37
2018-11-02T00:15:50.887Z,27.30
2018-11-02T00:18:19.364Z,27.53
2018-11-02T00:20:48.000Z,26.37
2018-11-02T00:23:16.757Z,26.10
2018-11-02T00:25:45.284Z,28.33
2018-11-02T00:28:13.680Z,30.93
2018-11-02T00:30:42.115Z,29.80
2018-11-02T00:33:10.522Z,31.20
2018-11-02T00:35:38.939Z,28.60
2018-11-02T00:38:07.369Z,29.57
2018-11-02T00:40:35.767Z,28.70
2018-11-02T00:43:04.465Z,29.13
2018-11-02T00:45:32.974Z,27.43
2018-11-02T00:48:01.463Z,26.43
2018-11-02T00:50:29.871Z,26.53
2018-11-02T00:52:58.508Z,25.93
2018-11-02T00:55:27.007Z,27.87
2018-11-02T00:57:55.427Z,28.23
2018-11-02T01:00:23.878Z,26.83
2018-11-02T01:02:52.309Z,29.20
2018-11-02T01:05:20.923Z,30.30
2018-11-02T01:07:49.444Z,28.53
2018-11-02T01:10:17.862Z,30.40
2018-11-02T01:12:46.273Z,31.90
2018-11-02T01:15:14.925Z,29.40
2018-11-02T01:17:43.406Z,31.10
2018-11-02T01:20:12.223Z,29.63
2018-11-02T01:22:41.784Z,31.43
2018-11-02T01:25:10.184Z,28.37
2018-11-02T01:27:38.620Z,29.67
2018-11-02T01:30:07.008Z,30.00
2018-11-02T01:32:35.411Z,29.13
2018-11-02T01:35:03.806Z,28.40
2018-11-02T01:37:32.245Z,30.50
2018-11-02T01:40:00.860Z,28.40
2018-11-02T01:42:29.385Z,28.93
2018-11-02T01:44:57.837Z,29.57
2018-11-02T01:47:26.336Z,28.40
2018-11-02T01:49:54.756Z,29.03
2018-11-02T01:52:23.168Z,30.30
2018-11-02T01:54:51.571Z,29.63
2018-11-02T01:57:19.989Z,28.83
2018-11-02T01:59:48.763Z,29.87
2018-11-02T02:02:17.281Z,32.40
2018-11-02T02:04:45.928Z,29.17
2018-11-02T02:07:14.671Z,29.00
2018-11-02T02:09:43.171Z,27.37
2018-11-02T02:12:11.599Z,27.43
2018-11-02T02:14:40.054Z,27.60
2018-11-02T02:17:08.660Z,26.00
2018-11-02T02:19:37.171Z,27.07
2018-11-02T02:22:05.583Z,26.67
2018-11-02T02:24:34.012Z,27.97
2018-11-02T02:27:02.627Z,27.03
2018-11-02T02:29:31.153Z,27.17
2018-11-02T02:31:59.771Z,27.10
2018-11-02T02:34:28.490Z,26.57
2018-11-02T02:36:57.007Z,26.63
2018-11-02T02:39:25.414Z,25.50
2018-11-02T02:41:53.818Z,25.17
2018-11-02T02:44:22.456Z,24.37
2018-11-02T02:46:51.196Z,24.53
2018-11-02T02:49:19.905Z,23.20
2018-11-02T02:51:48.632Z,22.80
2018-11-02T02:54:17.178Z,22.37
2018-11-02T02:56:45.589Z,22.60
2018-11-02T02:59:14.000Z,20.73
2018-11-02T03:01:42.442Z,21.10
2018-11-02T03:04:10.855Z,20.47
2018-11-02T03:06:39.271Z,20.17
2018-11-02T03:09:07.978Z,19.20
2018-11-02T03:11:36.589Z,18.70
2018-11-02T03:14:05.030Z,18.27
2018-11-02T03:16:33.432Z,18.30
2018-11-02T03:19:01.832Z,18.33
2018-11-02T03:21:30.260Z,18.33
2018-11-02T03:23:58.696Z,16.57
2018-11-02T03:26:27.132Z,16.60
2018-11-02T03:28:55.552Z,15.77
2018-11-02T03:31:23.956Z,15.33
2018-11-02T03:33:52.580Z,14.93
2018-11-02T03:36:21.084Z,14.83
2018-11-02T03:38:49.513Z,13.63
2018-11-02T03:41:17.915Z,14.20
2018-11-02T03:43:46.480Z,14.80
2018-11-02T03:46:15.092Z,13.70
2018-11-02T03:48:43.957Z,14.00
2018-11-02T03:51:12.607Z,13.67
2018-11-02T03:53:41.076Z,14.30
2018-11-02T03:56:09.548Z,14.10
2018-11-02T03:58:38.086Z,13.43
2018-11-02T04:01:06.611Z,14.53
2018-11-02T04:03:35.017Z,22.63
2018-11-02T04:06:03.455Z,19.87
2018-11-02T04:08:31.848Z,21.27
2018-11-02T04:11:00.259Z,16.33
2018-11-02T04:13:28.920Z,14.60
2018-11-02T04:15:57.408Z,12.77
2018-11-02T04:18:25.811Z,13.60
2018-11-02T04:20:54.227Z,13.67
2018-11-02T04:23:22.859Z,13.63
2018-11-02T04:25:51.389Z,13.67
2018-11-02T04:28:19.770Z,13.40
2018-11-02T04:30:48.232Z,12.63
2018-11-02T04:33:16.629Z,13.67
2018-11-02T04:35:45.043Z,13.30
2018-11-02T04:38:13.457Z,13.17
2018-11-02T04:40:41.876Z,13.23
2018-11-02T04:43:10.506Z,12.33
2018-11-02T04:45:39.888Z,13.50
2018-11-02T04:48:11.591Z,13.20
2018-11-02T04:50:40.607Z,13.57
2018-11-02T04:53:09.057Z,13.30
2018-11-02T04:55:37.472Z,13.53
2018-11-02T04:58:05.869Z,13.27
2018-11-02T05:00:34.281Z,13.33
2018-11-02T05:03:02.984Z,13.40
2018-11-02T05:05:31.395Z,14.73
2018-11-02T05:07:59.810Z,14.13
2018-11-02T05:10:28.459Z,14.70
2018-11-02T05:12:57.192Z,15.57
2018-11-02T05:15:25.905Z,13.80
2018-11-02T05:17:54.851Z,14.60
2018-11-02T05:20:23.350Z,14.60
2018-11-02T05:22:51.959Z,14.33
2018-11-02T05:25:20.468Z,14.47
2018-11-02T05:27:48.872Z,14.90
2018-11-02T05:30:17.272Z,14.97
2018-11-02T05:32:45.683Z,14.63
2018-11-02T05:35:14.090Z,15.13
2018-11-02T05:37:42.479Z,15.43
2018-11-02T05:40:11.096Z,15.40
2018-11-02T05:42:39.578Z,14.80
2018-11-02T05:45:07.975Z,15.60
2018-11-02T05:47:36.376Z,14.33
2018-11-02T05:50:04.776Z,15.00
2018-11-02T05:52:33.177Z,15.73
2018-11-02T05:55:01.747Z,14.90
2018-11-02T05:57:30.144Z,16.00
2018-11-02T05:59:58.812Z,15.77
2018-11-02T06:02:27.256Z,15.93
2018-11-02T06:04:56.294Z,16.73
2018-11-02T06:07:24.901Z,15.07
2018-11-02T06:09:53.415Z,15.33
2018-11-02T06:12:21.818Z,15.27
2018-11-02T06:14:50.191Z,15.83
2018-11-02T06:17:18.591Z,16.10
2018-11-02T06:19:47.066Z,16.43
2018-11-02T06:22:15.503Z,16.83
2018-11-02T06:24:44.141Z,17.30
2018-11-02T06:27:12.834Z,16.83
2018-11-02T06:29:41.333Z,16.93
2018-11-02T06:32:09.932Z,15.83
2018-11-02T06:34:38.708Z,17.47
2018-11-02T06:37:07.198Z,19.57
2018-11-02T06:39:35.610Z,17.67
2018-11-02T06:42:04.072Z,16.50
2018-11-02T06:44:32.703Z,17.20
2018-11-02T06:47:01.197Z,17.43
2018-11-02T06:49:29.631Z,16.10
2018-11-02T06:51:58.001Z,17.90
2018-11-02T06:54:26.417Z,17.60
2018-11-02T06:56:55.020Z,17.33
2018-11-02T06:59:23.611Z,16.47
2018-11-02T07:01:51.914Z,13.83
2018-11-02T07:04:20.531Z,16.37
2018-11-02T07:06:49.010Z,18.75
2018-11-02T07:09:17.411Z,15.43
2018-11-02T07:11:45.840Z,15.57
2018-11-02T07:14:14.237Z,15.10
2018-11-02T07:16:42.873Z,13.77
2018-11-02T07:19:11.364Z,14.80
2018-11-02T07:21:40.211Z,15.13
2018-11-02T07:24:08.756Z,14.13
2018-11-02T07:26:37.309Z,14.37
2018-11-02T07:29:05.821Z,13.80
2018-11-02T07:31:34.250Z,14.33
2018-11-02T07:34:02.807Z,13.27
2018-11-02T07:36:31.208Z,13.83
2018-11-02T07:38:59.657Z,13.63
2018-11-02T07:41:28.271Z,13.50
2018-11-02T07:43:56.776Z,13.00
2018-11-02T07:46:25.275Z,13.23
2018-11-02T07:48:53.899Z,12.03
2018-11-02T07:51:22.529Z,13.57
2018-11-02T07:53:51.104Z,13.00
2018-11-02T07:56:19.512Z,12.83
2018-11-02T07:58:48.123Z,12.10
2018-11-02T08:01:16.656Z,12.00
2018-11-02T08:03:45.275Z,12.53
2018-11-02T08:06:13.869Z,12.53
2018-11-02T08:08:42.467Z,12.23
2018-11-02T08:11:16.103Z,11.50
2018-11-02T08:13:44.533Z,10.80
2018-11-02T08:16:13.148Z,11.60
2018-11-02T08:18:41.674Z,11.97
2018-11-02T08:21:10.328Z,10.43
2018-11-02T08:23:38.827Z,11.80
2018-11-02T08:26:07.232Z,10.57
2018-11-02T08:28:35.674Z,12.03
2018-11-02T08:31:04.619Z,11.60
2018-11-02T08:33:33.108Z,10.57
2018-11-02T08:36:01.548Z,12.90
2018-11-02T08:38:30.416Z,11.13
2018-11-02T08:40:59.180Z,10.77
2018-11-02T08:43:27.683Z,10.80
2018-11-02T08:45:56.088Z,10.10
2018-11-02T08:48:24.719Z,11.10
2018-11-02T08:50:53.227Z,10.90
2018-11-02T08:53:21.716Z,11.20
2018-11-02T08:55:50.135Z,11.50
2018-11-02T08:58:18.959Z,11.07
2018-11-02T09:00:47.272Z,10.50
2018-11-02T09:03:16.295Z,11.03
2018-11-02T09:05:44.940Z,10.77
2018-11-02T09:08:13.431Z,10.87
2018-11-02T09:10:42.076Z,10.70
2018-11-02T09:13:10.845Z,11.60
2018-11-02T09:15:39.308Z,10.63
2018-11-02T09:18:07.720Z,11.63
2018-11-02T09:20:36.611Z,11.47
2018-11-02T09:23:05.504Z,11.33
2018-11-02T09:25:34.189Z,10.73
2018-11-02T09:28:02.973Z,11.40
2018-11-02T09:30:31.503Z,10.53
2018-11-02T09:33:00.122Z,15.30
2018-11-02T09:35:28.627Z,10.30
2018-11-02T09:37:57.352Z,10.73
2018-11-02T09:40:26.011Z,11.00
2018-11-02T09:42:54.467Z,10.03
2018-11-02T09:45:22.895Z,10.30
2018-11-02T09:47:51.401Z,11.70
2018-11-02T09:50:19.864Z,11.47
2018-11-02T09:52:48.488Z,12.50
2018-11-02T09:55:17.012Z,11.47
2018-11-02T09:57:46.128Z,10.30
2018-11-02T10:00:15.137Z,8.97
2018-11-02T10:02:43.644Z,8.70
2018-11-02T10:05:12.924Z,7.67
2018-11-02T10:07:41.975Z,6.73
2018-11-02T10:10:10.938Z,5.87
2018-11-02T10:12:40.267Z,5.90
2018-11-02T10:15:10.468Z,5.40
2018-11-02T10:17:38.907Z,5.00
2018-11-02T10:20:07.632Z,4.77
2018-11-02T10:22:36.027Z,4.00
2018-11-02T10:25:04.857Z,3.63
2018-11-02T10:27:33.366Z,3.90
2018-11-02T10:30:01.760Z,4.50
2018-11-02T10:32:30.171Z,4.07
2018-11-02T10:34:58.728Z,4.90
2018-11-02T10:37:27.108Z,4.27
2018-11-02T10:39:55.507Z,3.60
2018-11-02T10:42:24.224Z,2.87
2018-11-02T10:44:53.002Z,3.00
2018-11-02T10:47:21.423Z,3.00
2018-11-02T10:49:49.856Z,2.57
2018-11-02T10:52:18.522Z,2.70
2018-11-02T10:54:47.230Z,2.70
2018-11-02T10:57:15.791Z,2.53
2018-11-02T10:59:44.404Z,2.60
2018-11-02T11:02:18.621Z,2.53
2018-11-02T11:04:47.100Z,2.30
2018-11-02T11:07:15.498Z,1.80
2018-11-02T11:09:43.919Z,2.27
2018-11-02T11:12:12.595Z,1.90
2018-11-02T11:14:41.002Z,1.87
2018-11-02T11:17:09.537Z,1.60
2018-11-02T11:19:38.165Z,1.73
2018-11-02T11:22:06.661Z,1.53
2018-11-02T11:24:35.300Z,1.70
2018-11-02T11:27:03.917Z,1.23
2018-11-02T11:29:32.638Z,1.70
2018-11-02T11:32:01.321Z,1.33
2018-11-02T11:34:29.804Z,1.50
2018-11-02T11:36:58.432Z,1.30
2018-11-02T11:39:26.990Z,1.50
2018-11-02T11:41:55.323Z,1.30
2018-11-02T11:44:23.716Z,1.30
2018-11-02T11:46:52.347Z,1.40
2018-11-02T11:49:21.057Z,1.33
2018-11-02T11:51:49.579Z,1.13
2018-11-02T11:54:18.246Z,1.20
2018-11-02T11:56:46.949Z,1.80
2018-11-02T11:59:15.423Z,1.40
2018-11-02T12:01:43.934Z,1.63
2018-11-02T12:04:12.595Z,1.30
2018-11-02T12:06:41.457Z,1.57
2018-11-02T12:09:09.969Z,2.33
2018-11-02T12:11:38.660Z,1.60
2018-11-02T12:14:07.380Z,1.60
2018-11-02T12:16:35.866Z,1.60
2018-11-02T12:19:04.268Z,1.60
2018-11-02T12:21:32.957Z,2.00
2018-11-02T12:24:01.420Z,1.63
2018-11-02T12:26:29.819Z,2.17
2018-11-02T12:28:58.298Z,1.70
2018-11-02T12:31:27.063Z,1.60
2018-11-02T12:33:55.451Z,1.80
2018-11-02T12:36:24.370Z,2.20
2018-11-02T12:38:52.848Z,1.70
2018-11-02T12:41:21.772Z,1.47
2018-11-02T12:43:50.471Z,1.63
2018-11-02T12:46:19.485Z,1.60
2018-11-02T12:48:48.560Z,1.87
2018-11-02T12:51:17.212Z,1.93
2018-11-02T12:53:46.487Z,1.60
2018-11-02T12:56:15.116Z,1.80
2018-11-02T12:58:43.593Z,1.50
2018-11-02T13:01:12.173Z,1.50
2018-11-02T13:03:40.777Z,1.40
2018-11-02T13:06:09.411Z,1.73
2018-11-02T13:08:37.836Z,1.80
2018-11-02T13:11:06.332Z,1.90
2018-11-02T13:13:34.974Z,2.00
2018-11-02T13:16:04.464Z,2.30
2018-11-02T13:18:32.908Z,1.97
2018-11-02T13:21:01.608Z,1.90
2018-11-02T13:23:30.339Z,1.60
2018-11-02T13:25:59.091Z,1.50
2018-11-02T13:28:27.610Z,1.73
2018-11-02T13:30:56.588Z,1.70
2018-11-02T13:33:25.087Z,1.60
2018-11-02T13:35:53.567Z,2.10
2018-11-02T13:38:22.000Z,1.57
2018-11-02T13:40:50.414Z,1.67
2018-11-02T13:43:18.916Z,1.53
2018-11-02T13:45:47.468Z,1.80
2018-11-02T13:48:16.803Z,1.90
2018-11-02T13:50:45.211Z,2.10
2018-11-02T13:53:13.812Z,1.40
2018-11-02T13:55:43.031Z,1.90
2018-11-02T13:58:11.681Z,2.23
2018-11-02T14:00:40.361Z,1.50
2018-11-02T14:03:09.055Z,1.73
2018-11-02T14:05:37.616Z,1.83
2018-11-02T14:08:06.248Z,1.40
2018-11-02T14:10:35.146Z,1.90
2018-11-02T14:13:03.540Z,1.70
2018-11-02T14:15:31.942Z,1.90
2018-11-02T14:18:00.355Z,1.67
2018-11-02T14:20:29.056Z,1.70
2018-11-02T14:22:57.560Z,2.07
2018-11-02T14:25:26.001Z,1.80
2018-11-02T14:27:54.392Z,2.13
2018-11-02T14:30:22.863Z,2.23
2018-11-02T14:32:52.167Z,1.60
2018-11-02T14:35:20.775Z,1.90
2018-11-02T14:37:49.275Z,2.27
2018-11-02T14:40:17.663Z,1.70
2018-11-02T14:42:46.050Z,1.90
2018-11-02T14:45:15.612Z,1.60
2018-11-02T14:47:45.299Z,2.03
2018-11-02T14:50:13.883Z,2.40
2018-11-02T14:52:42.526Z,2.50
2018-11-02T14:55:11.025Z,2.80
2018-11-02T14:57:40.053Z,2.53
2018-11-02T15:00:09.327Z,2.23
2018-11-02T15:02:37.878Z,2.30
2018-11-02T15:05:07.650Z,2.00
2018-11-02T15:07:36.364Z,1.93
2018-11-02T15:10:04.852Z,2.23
2018-11-02T15:12:33.283Z,1.40
2018-11-02T15:15:01.685Z,1.93
2018-11-02T15:17:30.103Z,1.53
2018-11-02T15:19:58.500Z,1.77
2018-11-02T15:22:26.916Z,1.50
2018-11-02T15:24:55.353Z,2.00
2018-11-02T15:27:23.787Z,1.60
2018-11-02T15:29:52.417Z,1.60
2018-11-02T15:32:21.240Z,2.30
2018-11-02T15:34:49.717Z,1.80
2018-11-02T15:37:18.177Z,2.00
2018-11-02T15:39:46.761Z,2.17
2018-11-02T15:42:15.694Z,2.03
2018-11-02T15:44:44.562Z,1.80
2018-11-02T15:47:13.164Z,2.20
2018-11-02T15:49:42.391Z,2.20
2018-11-02T15:52:11.026Z,2.40
2018-11-02T15:54:39.602Z,1.60
2018-11-02T15:57:07.959Z,1.90
2018-11-02T15:59:36.611Z,1.30
2018-11-02T16:02:05.492Z,1.50
2018-11-02T16:04:33.966Z,1.73
2018-11-02T16:07:02.653Z,2.00
2018-11-02T16:09:31.305Z,2.10
2018-11-02T16:11:59.821Z,1.97
2018-11-02T16:14:28.378Z,2.17
2018-11-02T16:16:56.825Z,2.13
2018-11-02T16:19:25.523Z,3.13
2018-11-02T16:21:54.050Z,3.10
2018-11-02T16:24:22.658Z,3.03
2018-11-02T16:26:51.153Z,3.50
2018-11-02T16:29:19.622Z,4.07
2018-11-02T16:31:48.033Z,3.37
2018-11-02T16:34:16.457Z,2.90
2018-11-02T16:36:45.100Z,2.07
2018-11-02T16:39:13.612Z,2.80
2018-11-02T16:41:42.112Z,3.10
2018-11-02T16:44:10.783Z,3.27
2018-11-02T16:46:39.449Z,3.53
2018-11-02T16:49:07.948Z,4.53
2018-11-02T16:51:36.592Z,3.83
2018-11-02T16:54:05.120Z,4.40
2018-11-02T16:56:33.779Z,5.43
2018-11-02T16:59:02.538Z,5.57
2018-11-02T17:01:31.364Z,4.50
2018-11-02T17:03:59.883Z,3.93
2018-11-02T17:06:28.380Z,6.40
2018-11-02T17:08:57.037Z,5.77
2018-11-02T17:11:25.746Z,6.37
2018-11-02T17:13:54.215Z,5.70
2018-11-02T17:16:22.823Z,3.87
2018-11-02T17:18:51.379Z,3.53
2018-11-02T17:21:19.974Z,3.20
2018-11-02T17:23:48.747Z,3.43
2018-11-02T17:26:17.518Z,3.20
2018-11-02T17:28:46.063Z,3.03
2018-11-02T17:31:14.507Z,2.63
2018-11-02T17:33:43.029Z,3.03
2018-11-02T17:36:11.508Z,2.70
2018-11-02T17:38:39.965Z,2.57
2018-11-02T17:41:08.476Z,5.30
2018-11-02T17:43:37.032Z,11.80
2018-11-02T17:46:05.977Z,10.73
2018-11-02T17:48:35.618Z,33.20
2018-11-02T17:51:04.147Z,61.83
2018-11-02T17:53:33.055Z,80.63
2018-11-02T17:56:01.515Z,57.77
2018-11-02T17:58:29.949Z,50.63
2018-11-02T18:00:58.863Z,36.60
2018-11-02T18:03:27.653Z,20.40
2018-11-02T18:05:56.432Z,15.70
2018-11-02T18:08:24.875Z,20.47
2018-11-02T18:10:53.403Z,20.07
2018-11-02T18:13:22.762Z,17.77
2018-11-02T18:15:51.387Z,13.37
2018-11-02T18:18:19.777Z,9.23
2018-11-02T18:20:48.307Z,8.30
2018-11-02T18:23:17.037Z,8.17
2018-11-02T18:25:45.541Z,8.10
2018-11-02T18:28:13.979Z,6.93
2018-11-02T18:30:56.943Z,6.40
2018-11-02T18:33:25.410Z,6.87
2018-11-02T18:35:53.795Z,5.07
2018-11-02T18:38:22.228Z,4.93
2018-11-02T18:40:50.660Z,18.80
2018-11-02T18:43:19.321Z,17.33
2018-11-02T18:45:47.842Z,17.23
2018-11-02T18:48:16.723Z,15.83
2018-11-02T18:50:45.063Z,15.83
2018-11-02T18:53:13.732Z,21.53
2018-11-02T18:55:42.260Z,21.13
2018-11-02T18:58:10.855Z,20.43
2018-11-02T19:00:39.408Z,13.93
2018-11-02T19:03:07.916Z,20.10
2018-11-02T19:05:36.716Z,17.73
2018-11-02T19:08:05.157Z,17.47
2018-11-02T19:10:38.707Z,14.13
2018-11-02T19:13:07.363Z,12.53
2018-11-02T19:15:36.235Z,9.30
2018-11-02T19:18:04.912Z,6.67
2018-11-02T19:20:33.809Z,5.43
2018-11-02T19:23:02.233Z,4.97
2018-11-02T19:25:30.673Z,4.60
2018-11-02T19:27:59.104Z,4.27
2018-11-02T19:30:27.521Z,4.37
2018-11-02T19:32:55.996Z,4.47
2018-11-02T19:35:24.794Z,3.90
2018-11-02T19:37:53.169Z,4.83
2018-11-02T19:40:21.584Z,6.13
2018-11-02T19:42:50.004Z,7.40
2018-11-02T19:45:18.419Z,8.73
2018-11-02T19:47:54.440Z,9.03
2018-11-02T19:50:23.357Z,8.17
2018-11-02T19:52:51.876Z,6.90
2018-11-02T19:55:21.204Z,6.57
2018-11-02T19:57:49.752Z,6.43
2018-11-02T20:00:18.329Z,5.67
2018-11-02T20:02:47.135Z,6.77
2018-11-02T20:05:16.992Z,7.97
2018-11-02T20:07:45.425Z,8.30
2018-11-02T20:10:14.677Z,18.53
2018-11-02T20:12:43.529Z,14.30
2018-11-02T20:15:12.782Z,8.93
2018-11-02T20:17:41.751Z,5.90
2018-11-02T20:20:11.473Z,5.17
2018-11-02T20:22:39.899Z,5.30
2018-11-02T20:25:09.397Z,5.00
2018-11-02T20:27:37.820Z,4.67
2018-11-02T20:30:07.572Z,5.00
2018-11-02T20:32:36.056Z,4.80
2018-11-02T20:35:04.512Z,4.13
2018-11-02T20:37:32.927Z,4.63
2018-11-02T20:40:01.342Z,4.97
2018-11-02T20:42:29.799Z,4.60
2018-11-02T20:44:58.511Z,4.10
2018-11-02T20:47:28.684Z,3.80
2018-11-02T20:49:57.097Z,4.00
2018-11-02T20:52:30.655Z,3.67
2018-11-02T20:54:59.068Z,3.97
2018-11-02T20:57:27.458Z,3.87
2018-11-02T20:59:55.884Z,3.47
2018-11-02T21:02:24.525Z,3.70
2018-11-02T21:04:53.013Z,4.50
2018-11-02T21:07:21.454Z,3.60
2018-11-02T21:09:49.811Z,3.57
2018-11-02T21:12:18.215Z,4.80
2018-11-02T21:14:46.671Z,4.17
2018-11-02T21:17:15.145Z,7.90
2018-11-02T21:19:43.456Z,7.70
2018-11-02T21:22:12.456Z,5.80
2018-11-02T21:24:41.068Z,6.07
2018-11-02T21:27:10.028Z,4.87
2018-11-02T21:29:38.545Z,5.20
2018-11-02T21:32:07.156Z,4.33
2018-11-02T21:34:35.648Z,4.70
2018-11-02T21:37:04.068Z,3.90
2018-11-02T21:39:32.471Z,4.10
2018-11-02T21:42:01.087Z,4.50
2018-11-02T21:44:29.833Z,4.23
2018-11-02T21:46:59.127Z,5.07
2018-11-02T21:49:27.526Z,4.40
2018-11-02T21:51:55.947Z,4.53
2018-11-02T21:54:24.551Z,5.80
2018-11-02T21:56:53.263Z,4.90
2018-11-02T21:59:21.764Z,5.73
2018-11-02T22:01:50.172Z,8.07
2018-11-02T22:04:18.580Z,6.37
2018-11-02T22:06:47.239Z,7.17
2018-11-02T22:09:15.937Z,7.30
2018-11-02T22:11:44.652Z,9.73
2018-11-02T22:14:13.384Z,6.80
2018-11-02T22:16:41.881Z,7.10
2018-11-02T22:19:10.292Z,6.13
2018-11-02T22:21:38.700Z,5.13
2018-11-02T22:24:07.097Z,5.10
2018-11-02T22:26:35.501Z,5.40
2018-11-02T22:29:04.016Z,5.60
2018-11-02T22:31:32.321Z,6.03
2018-11-02T22:34:00.937Z,7.67
2018-11-02T22:36:29.668Z,6.00
2018-11-02T22:38:58.163Z,5.37
2018-11-02T22:41:26.596Z,5.30
2018-11-02T22:43:55.032Z,5.33
2018-11-02T22:46:23.639Z,5.53
2018-11-02T22:48:52.131Z,5.27
2018-11-02T22:51:20.539Z,5.70
2018-11-02T22:53:48.934Z,6.07
2018-11-02T22:56:17.332Z,6.10
2018-11-02T22:58:45.757Z,5.97
2018-11-02T23:01:19.684Z,5.10
2018-11-02T23:03:48.096Z,5.43
2018-11-02T23:06:16.496Z,5.60
2018-11-02T23:08:45.168Z,5.20
2018-11-02T23:11:13.629Z,4.83
2018-11-02T23:13:42.024Z,7.33
2018-11-02T23:16:10.423Z,6.33
2018-11-02T23:18:39.107Z,11.93
2018-11-02T23:21:07.797Z,16.93
2018-11-02T23:23:36.285Z,11.33
2018-11-02T23:26:04.717Z,12.37
2018-11-02T23:28:33.109Z,7.07
2018-11-02T23:31:01.768Z,6.57
2018-11-02T23:33:30.271Z,5.60
2018-11-02T23:35:58.883Z,6.23
2018-11-02T23:38:27.363Z,5.00
2018-11-02T23:40:55.786Z,5.10
2018-11-02T23:43:24.243Z,4.57
2018-11-02T23:45:52.927Z,5.43
2018-11-02T23:48:21.710Z,5.07
2018-11-02T23:50:50.945Z,4.50
2018-11-02T23:53:19.504Z,4.90
2018-11-02T23:55:47.961Z,4.47
2018-11-02T23:58:16.599Z,4.43
